createdAt,value
2022-07-31T00:02:37.882Z,13.76
2022-07-31T00:06:01.860Z,13.84
2022-07-31T00:09:53.212Z,14.24
2022-07-31T00:13:10.890Z,14.99
2022-07-31T00:16:34.857Z,14.32
2022-07-31T00:19:59.841Z,13.72
2022-07-31T00:23:23.862Z,13.17
2022-07-31T00:26:42.434Z,13.48
2022-07-31T00:30:00.908Z,14.28
2022-07-31T00:33:24.855Z,14.18
2022-07-31T00:36:48.851Z,14.46
2022-07-31T00:40:12.842Z,14.62
2022-07-31T00:43:36.894Z,13.48
2022-07-31T00:47:01.030Z,12.94
2022-07-31T00:50:26.899Z,12.65
2022-07-31T00:53:50.838Z,11.90
2022-07-31T00:57:15.901Z,12.06
2022-07-31T01:00:40.942Z,11.81
2022-07-31T01:04:05.885Z,11.53
2022-07-31T01:07:31.868Z,11.28
2022-07-31T01:11:16.885Z,11.36
2022-07-31T01:14:43.841Z,11.63
2022-07-31T01:18:08.940Z,12.18
2022-07-31T01:21:50.873Z,12.77
2022-07-31T01:25:18.905Z,13.47
2022-07-31T01:29:11.913Z,13.56
2022-07-31T01:32:46.868Z,14.11
2022-07-31T01:36:17.962Z,14.11
2022-07-31T01:39:41.996Z,14.71
2022-07-31T01:43:17.198Z,14.41
2022-07-31T01:46:43.897Z,14.69
2022-07-31T01:50:08.870Z,14.06
2022-07-31T01:53:53.852Z,14.67
2022-07-31T01:57:19.003Z,14.78
2022-07-31T02:00:44.906Z,13.99
2022-07-31T02:04:12.963Z,13.92
2022-07-31T02:07:37.903Z,14.51
2022-07-31T02:11:00.941Z,14.32
2022-07-31T02:14:26.919Z,14.44
2022-07-31T02:17:52.891Z,14.84
2022-07-31T02:21:22.866Z,14.22
2022-07-31T02:24:46.901Z,14.04
2022-07-31T02:28:12.904Z,13.29
2022-07-31T02:31:39.008Z,12.66
2022-07-31T02:35:03.888Z,12.58
2022-07-31T02:38:29.941Z,13.23
2022-07-31T02:41:54.908Z,13.47
2022-07-31T02:45:18.912Z,13.53
2022-07-31T02:48:42.890Z,13.63
2022-07-31T02:52:08.889Z,13.51
2022-07-31T02:55:33.935Z,13.80
2022-07-31T02:58:57.916Z,13.82
2022-07-31T03:02:38.111Z,13.85
2022-07-31T03:06:02.882Z,13.79
2022-07-31T03:09:27.933Z,13.81
2022-07-31T03:13:13.923Z,13.94
2022-07-31T03:16:43.055Z,14.29
2022-07-31T03:20:07.871Z,13.95
2022-07-31T03:23:31.966Z,13.65
2022-07-31T03:27:03.927Z,12.98
2022-07-31T03:30:34.951Z,12.28
2022-07-31T03:33:52.465Z,12.65
2022-07-31T03:37:17.974Z,12.91
2022-07-31T03:40:42.937Z,13.12
2022-07-31T03:44:07.920Z,13.29
2022-07-31T03:47:31.923Z,13.22
2022-07-31T03:50:56.919Z,13.18
2022-07-31T03:54:21.874Z,13.06
2022-07-31T03:57:54.054Z,12.97
2022-07-31T04:01:20.806Z,12.92
2022-07-31T04:04:48.884Z,12.99
2022-07-31T04:08:14.038Z,13.02
2022-07-31T04:11:38.882Z,12.91
2022-07-31T04:15:02.980Z,12.76
2022-07-31T04:18:26.905Z,12.60
2022-07-31T04:21:49.991Z,12.68
2022-07-31T04:25:13.992Z,12.50
2022-07-31T04:28:57.981Z,12.47
2022-07-31T04:32:22.937Z,12.41
2022-07-31T04:35:52.973Z,12.38
2022-07-31T04:39:16.952Z,12.29
2022-07-31T04:42:40.983Z,12.14
2022-07-31T04:46:17.454Z,12.09
2022-07-31T04:49:41.984Z,11.84
2022-07-31T04:53:00.999Z,11.83
2022-07-31T04:56:46.943Z,11.73
2022-07-31T05:00:10.973Z,11.61
2022-07-31T05:03:35.922Z,11.66
2022-07-31T05:07:07.006Z,11.57
2022-07-31T05:10:48.916Z,11.53
2022-07-31T05:14:13.988Z,11.47
2022-07-31T05:17:38.921Z,11.29
2022-07-31T05:21:22.961Z,11.31
2022-07-31T05:25:24.943Z,11.18
2022-07-31T05:28:48.946Z,10.99
2022-07-31T05:32:14.311Z,10.90
2022-07-31T05:35:38.950Z,10.83
2022-07-31T05:39:08.935Z,10.74
2022-07-31T05:42:52.939Z,10.61
2022-07-31T05:50:14.920Z,10.53
2022-07-31T05:53:37.956Z,10.46
2022-07-31T05:57:33.856Z,10.25
2022-07-31T06:01:00.007Z,10.33
2022-07-31T06:04:23.933Z,10.33
2022-07-31T06:07:51.331Z,10.48
2022-07-31T06:11:17.019Z,10.29
2022-07-31T06:14:40.997Z,10.22
2022-07-31T06:18:20.954Z,10.25
2022-07-31T06:21:45.998Z,10.25
2022-07-31T06:25:10.004Z,10.18
2022-07-31T06:28:47.833Z,10.14
2022-07-31T06:32:14.005Z,10.04
2022-07-31T06:35:38.071Z,10.28
2022-07-31T06:39:54.743Z,10.41
2022-07-31T06:43:41.986Z,10.43
2022-07-31T06:47:40.943Z,10.40
2022-07-31T06:51:29.817Z,10.23
2022-07-31T06:54:52.983Z,10.18
2022-07-31T06:58:17.022Z,10.18
2022-07-31T07:01:42.060Z,10.16
2022-07-31T07:05:06.948Z,9.98
2022-07-31T07:08:31.941Z,9.99
2022-07-31T07:11:56.982Z,10.01
2022-07-31T07:15:21.943Z,9.87
2022-07-31T07:18:46.033Z,9.92
2022-07-31T07:22:10.947Z,9.89
2022-07-31T07:25:33.984Z,9.81
2022-07-31T07:29:01.001Z,9.83
2022-07-31T07:32:26.004Z,9.83
2022-07-31T07:35:52.028Z,9.95
2022-07-31T07:39:17.049Z,9.92
2022-07-31T07:42:42.019Z,9.94
2022-07-31T07:46:05.965Z,9.93
2022-07-31T07:49:35.100Z,9.98
2022-07-31T07:53:22.001Z,9.89
2022-07-31T07:57:05.022Z,9.96
2022-07-31T08:00:49.011Z,9.97
2022-07-31T08:04:14.046Z,9.92
2022-07-31T08:07:47.015Z,9.93
2022-07-31T08:11:30.998Z,9.78
2022-07-31T08:15:01.014Z,9.72
2022-07-31T08:18:43.015Z,9.75
2022-07-31T08:22:07.255Z,9.59
2022-07-31T08:25:33.050Z,9.76
2022-07-31T08:28:58.058Z,9.71
2022-07-31T08:32:23.064Z,9.70
2022-07-31T08:36:07.012Z,9.82
2022-07-31T08:39:30.964Z,9.54
2022-07-31T08:42:57.100Z,9.43
2022-07-31T08:46:25.022Z,9.55
2022-07-31T08:49:53.038Z,9.46
2022-07-31T08:53:17.966Z,9.39
2022-07-31T08:57:00.052Z,9.35
2022-07-31T09:00:30.060Z,9.12
2022-07-31T09:03:54.068Z,8.88
2022-07-31T09:07:18.073Z,8.66
2022-07-31T09:10:49.425Z,8.43
2022-07-31T09:14:19.063Z,8.62
2022-07-31T09:17:54.211Z,8.82
2022-07-31T09:21:21.090Z,9.22
2022-07-31T09:24:46.990Z,9.17
2022-07-31T09:28:23.366Z,8.73
2022-07-31T09:31:51.529Z,8.82
2022-07-31T09:35:36.270Z,8.72
2022-07-31T09:38:59.985Z,8.88
2022-07-31T09:42:55.566Z,8.55
2022-07-31T09:46:14.068Z,8.36
2022-07-31T09:49:47.036Z,8.19
2022-07-31T09:53:15.181Z,7.85
2022-07-31T09:56:47.993Z,7.81
2022-07-31T10:00:17.208Z,7.86
2022-07-31T10:03:43.012Z,7.75
2022-07-31T10:07:08.268Z,7.53
2022-07-31T10:10:32.998Z,7.37
2022-07-31T10:14:15.101Z,7.39
2022-07-31T10:17:45.042Z,7.25
2022-07-31T10:21:54.035Z,7.36
2022-07-31T10:25:32.052Z,7.41
2022-07-31T10:28:57.055Z,8.15
2022-07-31T10:32:24.099Z,8.27
2022-07-31T10:36:17.033Z,7.65
2022-07-31T10:40:37.024Z,7.41
2022-07-31T10:44:12.079Z,7.50
2022-07-31T10:48:05.455Z,7.57
2022-07-31T10:51:39.089Z,8.13
2022-07-31T10:55:34.015Z,7.90
2022-07-31T10:59:10.513Z,7.37
2022-07-31T11:03:05.028Z,8.19
2022-07-31T11:06:58.092Z,8.60
2022-07-31T11:10:39.046Z,8.53
2022-07-31T11:14:23.074Z,8.47
2022-07-31T11:18:17.398Z,8.36
2022-07-31T11:21:57.077Z,8.25
2022-07-31T11:25:21.117Z,8.07
2022-07-31T11:28:46.055Z,7.58
2022-07-31T11:32:10.035Z,7.47
2022-07-31T11:35:47.091Z,7.35
2022-07-31T11:39:12.096Z,7.15
2022-07-31T11:42:37.093Z,7.34
2022-07-31T11:46:04.042Z,7.42
2022-07-31T11:49:48.824Z,7.97
2022-07-31T11:53:20.103Z,9.10
2022-07-31T11:56:44.112Z,8.69
2022-07-31T12:00:26.520Z,8.63
2022-07-31T12:03:54.116Z,8.62
2022-07-31T12:07:21.027Z,8.86
2022-07-31T12:10:46.124Z,8.92
2022-07-31T12:14:10.066Z,8.46
2022-07-31T12:17:38.073Z,8.29
2022-07-31T12:21:16.095Z,7.98
2022-07-31T12:24:40.102Z,7.88
2022-07-31T12:28:11.053Z,7.83
2022-07-31T12:31:36.089Z,7.78
2022-07-31T12:35:01.025Z,7.75
2022-07-31T12:38:48.037Z,7.83
2022-07-31T12:42:10.083Z,7.63
2022-07-31T12:45:55.135Z,7.66
2022-07-31T12:49:20.152Z,7.42
2022-07-31T12:52:45.135Z,7.48
2022-07-31T12:56:09.119Z,7.25
2022-07-31T12:59:34.124Z,6.99
2022-07-31T13:02:58.074Z,6.93
2022-07-31T13:06:17.088Z,6.82
2022-07-31T13:09:41.089Z,6.79
2022-07-31T13:13:05.094Z,7.11
2022-07-31T13:16:29.106Z,7.14
2022-07-31T13:19:54.049Z,7.07
2022-07-31T13:23:18.108Z,7.05
2022-07-31T13:26:43.097Z,6.96
2022-07-31T13:30:07.142Z,7.14
2022-07-31T13:33:31.080Z,6.65
2022-07-31T13:36:55.165Z,6.21
2022-07-31T13:40:19.123Z,6.26
2022-07-31T13:44:00.448Z,5.95
2022-07-31T13:47:25.149Z,6.08
2022-07-31T13:50:51.078Z,5.90
2022-07-31T13:54:16.108Z,5.94
2022-07-31T13:57:40.112Z,5.93
2022-07-31T14:01:04.640Z,5.85
2022-07-31T14:04:32.111Z,5.96
2022-07-31T14:08:29.534Z,5.86
2022-07-31T14:11:41.111Z,6.07
2022-07-31T14:15:05.147Z,5.99
2022-07-31T14:18:30.146Z,5.95
2022-07-31T14:21:57.383Z,5.90
2022-07-31T14:25:22.071Z,5.97
2022-07-31T14:28:47.161Z,6.19
2022-07-31T14:32:11.101Z,6.22
2022-07-31T14:35:35.178Z,6.26
2022-07-31T14:39:00.115Z,6.19
2022-07-31T14:42:25.557Z,6.02
2022-07-31T14:45:52.327Z,6.19
2022-07-31T14:49:17.225Z,6.16
2022-07-31T14:52:41.136Z,5.95
2022-07-31T14:56:05.126Z,5.87
2022-07-31T14:59:31.213Z,5.78
2022-07-31T15:02:59.187Z,5.72
2022-07-31T15:06:51.680Z,5.66
2022-07-31T15:10:08.164Z,5.74
2022-07-31T15:13:34.939Z,5.51
2022-07-31T15:16:54.119Z,5.68
2022-07-31T15:20:19.139Z,5.50
2022-07-31T15:23:53.104Z,5.52
2022-07-31T15:27:17.164Z,5.41
2022-07-31T15:30:41.088Z,5.35
2022-07-31T15:34:05.149Z,5.11
2022-07-31T15:37:30.178Z,5.10
2022-07-31T15:40:57.189Z,4.98
2022-07-31T15:44:21.106Z,5.00
2022-07-31T15:47:45.143Z,5.08
2022-07-31T15:51:09.124Z,5.05
2022-07-31T15:54:33.153Z,5.38
2022-07-31T15:57:51.708Z,5.51
2022-07-31T16:01:10.263Z,5.46
2022-07-31T16:04:35.109Z,5.30
2022-07-31T16:08:32.082Z,5.22
2022-07-31T16:12:03.598Z,5.08
2022-07-31T16:15:27.245Z,4.98
2022-07-31T16:18:51.165Z,4.56
2022-07-31T16:22:16.133Z,4.52
2022-07-31T16:25:46.115Z,4.85
2022-07-31T16:29:17.143Z,4.72
2022-07-31T16:32:43.152Z,4.62
2022-07-31T16:36:08.151Z,4.69
2022-07-31T16:39:32.154Z,4.64
2022-07-31T16:42:58.227Z,4.57
2022-07-31T16:46:23.111Z,4.34
2022-07-31T16:49:47.237Z,4.46
2022-07-31T16:53:13.612Z,4.30
2022-07-31T16:56:58.187Z,4.35
2022-07-31T17:00:16.747Z,4.44
2022-07-31T17:04:01.995Z,4.40
2022-07-31T17:07:19.163Z,4.30
2022-07-31T17:10:44.185Z,4.37
2022-07-31T17:14:08.129Z,4.29
2022-07-31T17:17:31.201Z,4.55
2022-07-31T17:20:56.823Z,4.30
2022-07-31T17:24:21.205Z,4.21
2022-07-31T17:27:46.156Z,5.32
2022-07-31T17:31:13.210Z,4.62
2022-07-31T17:34:37.179Z,4.47
2022-07-31T17:38:02.184Z,4.41
2022-07-31T17:41:27.146Z,4.24
2022-07-31T17:44:54.993Z,4.60
2022-07-31T17:48:19.149Z,4.22
2022-07-31T17:51:59.345Z,4.02
2022-07-31T17:55:24.186Z,3.97
2022-07-31T17:58:49.174Z,3.88
2022-07-31T18:02:07.092Z,3.79
2022-07-31T18:05:25.308Z,3.97
2022-07-31T18:08:48.212Z,3.86
2022-07-31T18:12:15.660Z,3.86
2022-07-31T18:15:40.156Z,3.87
2022-07-31T18:19:04.206Z,3.87
2022-07-31T18:22:28.139Z,3.81
2022-07-31T18:25:59.186Z,3.90
2022-07-31T18:29:25.194Z,3.73
2022-07-31T18:32:49.217Z,3.87
2022-07-31T18:36:12.220Z,3.84
2022-07-31T18:39:48.087Z,3.85
2022-07-31T18:43:14.150Z,3.59
2022-07-31T18:46:37.231Z,3.55
2022-07-31T18:51:02.439Z,3.37
2022-07-31T18:53:46.238Z,3.44
2022-07-31T18:57:12.215Z,3.52
2022-07-31T19:00:37.212Z,3.49
2022-07-31T19:04:01.260Z,3.37
2022-07-31T19:07:25.173Z,3.33
2022-07-31T19:10:50.230Z,3.41
2022-07-31T19:14:14.189Z,3.30
2022-07-31T19:17:44.011Z,3.41
2022-07-31T19:21:22.705Z,3.31
2022-07-31T19:24:53.196Z,3.46
2022-07-31T19:28:17.231Z,3.33
2022-07-31T19:31:42.237Z,3.32
2022-07-31T19:35:06.150Z,3.32
2022-07-31T19:38:30.198Z,3.42
2022-07-31T19:42:10.898Z,3.06
2022-07-31T19:45:37.209Z,3.24
2022-07-31T19:49:21.257Z,3.18
2022-07-31T19:52:45.194Z,3.30
2022-07-31T19:56:18.091Z,3.30
2022-07-31T19:59:44.204Z,3.51
2022-07-31T20:03:08.254Z,3.27
2022-07-31T20:06:32.243Z,3.53
2022-07-31T20:09:57.186Z,3.54
2022-07-31T20:13:22.256Z,3.74
2022-07-31T20:16:46.157Z,3.93
2022-07-31T20:20:15.874Z,4.23
2022-07-31T20:23:42.167Z,4.41
2022-07-31T20:27:06.251Z,4.59
2022-07-31T20:30:31.233Z,4.71
2022-07-31T20:33:56.948Z,4.87
2022-07-31T20:37:22.228Z,5.30
2022-07-31T20:40:52.903Z,5.56
2022-07-31T20:44:18.219Z,6.30
2022-07-31T20:47:42.222Z,8.49
2022-07-31T20:51:06.228Z,10.08
2022-07-31T20:54:34.364Z,10.21
2022-07-31T20:57:59.232Z,11.26
2022-07-31T21:01:24.262Z,10.75
2022-07-31T21:04:48.247Z,10.89
2022-07-31T21:08:13.213Z,10.82
2022-07-31T21:11:37.230Z,11.28
2022-07-31T21:15:02.219Z,11.48
2022-07-31T21:18:34.360Z,11.20
2022-07-31T21:21:59.206Z,11.56
2022-07-31T21:25:26.229Z,11.46
2022-07-31T21:28:52.210Z,10.89
2022-07-31T21:32:16.255Z,9.99
2022-07-31T21:35:41.226Z,10.47
2022-07-31T21:39:05.267Z,10.15
2022-07-31T21:42:29.205Z,10.84
2022-07-31T21:45:57.282Z,10.61
2022-07-31T21:49:28.319Z,11.00
2022-07-31T21:52:52.263Z,11.23
2022-07-31T21:56:16.227Z,11.91
2022-07-31T21:59:41.276Z,12.00
2022-07-31T22:03:05.216Z,13.07
2022-07-31T22:06:47.247Z,12.11
2022-07-31T22:10:04.939Z,12.92
2022-07-31T22:13:22.269Z,12.68
2022-07-31T22:16:47.199Z,12.89
2022-07-31T22:20:11.227Z,13.49
2022-07-31T22:23:35.315Z,13.22
2022-07-31T22:27:19.238Z,12.63
2022-07-31T22:30:43.230Z,13.65
2022-07-31T22:34:08.267Z,14.14
2022-07-31T22:37:33.281Z,13.91
2022-07-31T22:40:57.308Z,14.63
2022-07-31T22:44:23.216Z,15.25
2022-07-31T22:47:48.305Z,15.47
2022-07-31T22:51:14.645Z,15.15
2022-07-31T22:54:39.279Z,15.67
2022-07-31T22:58:03.260Z,15.67
2022-07-31T23:01:28.319Z,16.21
2022-07-31T23:04:52.288Z,15.85
2022-07-31T23:08:16.324Z,16.36
2022-07-31T23:11:33.858Z,16.25
2022-07-31T23:14:52.315Z,17.02
2022-07-31T23:18:16.256Z,17.25
2022-07-31T23:21:40.255Z,16.80
2022-07-31T23:25:05.268Z,17.08
2022-07-31T23:28:30.266Z,17.29
2022-07-31T23:31:54.239Z,16.63
2022-07-31T23:35:18.322Z,16.97
2022-07-31T23:38:42.229Z,16.90
2022-07-31T23:42:24.314Z,16.55
2022-07-31T23:45:48.288Z,17.65
2022-07-31T23:49:13.395Z,17.58
2022-07-31T23:52:37.274Z,17.40
2022-07-31T23:56:01.313Z,17.34
2022-07-31T23:59:26.298Z,17.10
